Time;durP1;ratioP1;P1;durP2;ratioP2;P2;SDS_P1;SDS_P2;PMS_P1;PMS_P2;Temp;Humidity;BMP_temperature;BMP_pressure;BME280_temperature;BME280_humidity;BME280_pressure;Samples;Min_cycle;Max_cycle;Signal;HPM_P1;HPM_P2
2022/01/11 00:01:40;;;;;;;8.57;3.70;;;;;;;-6.20;74.77;99620.28;5053366;28;20420;-60
2022/01/11 00:04:07;;;;;;;7.00;3.55;;;;;;;-6.26;74.67;99621.59;5052376;28;20048;-60
2022/01/11 00:06:46;;;;;;;8.93;3.80;;;;;;;-6.29;74.60;99624.44;5053391;28;20110;-57
2022/01/11 00:09:21;;;;;;;7.30;3.63;;;;;;;-6.21;73.90;99627.19;5052759;28;20045;-58
2022/01/11 00:11:48;;;;;;;7.75;3.75;;;;;;;-6.35;74.72;99640.41;5053780;28;20060;-60
2022/01/11 00:14:14;;;;;;;9.38;5.38;;;;;;;-6.36;74.78;99615.53;5053264;28;20040;-59
2022/01/11 00:16:40;;;;;;;8.02;3.72;;;;;;;-6.53;74.78;99622.06;5053315;28;20048;-60
2022/01/11 00:19:06;;;;;;;14.23;5.03;;;;;;;-6.58;75.19;99624.16;5052574;28;20051;-59
2022/01/11 00:21:44;;;;;;;6.93;3.53;;;;;;;-6.60;74.53;99628.63;5052791;28;20068;-58
2022/01/11 00:24:33;;;;;;;5.82;3.65;;;;;;;-6.57;74.44;99623.22;5062596;28;20036;-59
2022/01/11 00:27:09;;;;;;;11.88;4.75;;;;;;;-6.39;74.23;99620.94;5071071;28;20048;-59
2022/01/11 00:29:44;;;;;;;7.45;3.85;;;;;;;-6.32;74.42;99629.84;5072376;28;20500;-58
2022/01/11 00:32:26;;;;;;;8.20;4.10;;;;;;;-6.58;74.20;99631.09;5064857;28;20119;-58
2022/01/11 00:34:55;;;;;;;7.90;4.53;;;;;;;-6.71;75.11;99646.69;5050927;28;20056;-60
2022/01/11 00:37:21;;;;;;;7.45;3.67;;;;;;;-6.75;74.98;99640.16;5050727;28;20402;-60
2022/01/11 00:39:50;;;;;;;10.02;4.97;;;;;;;-6.63;74.39;99647.72;5050772;28;20048;-59
2022/01/11 00:42:17;;;;;;;7.20;3.70;;;;;;;-6.75;74.63;99653.84;5034021;28;20043;-59
2022/01/11 00:44:43;;;;;;;6.72;3.10;;;;;;;-6.64;73.90;99640.94;5052199;28;20413;-60
2022/01/11 00:47:09;;;;;;;8.18;2.42;;;;;;;-6.68;73.60;99646.44;5050614;28;20041;-59
2022/01/11 00:49:38;;;;;;;9.20;4.45;;;;;;;-6.79;74.13;99657.63;5034191;28;20054;-59
2022/01/11 00:52:04;;;;;;;7.63;3.25;;;;;;;-6.91;73.72;99658.56;5055940;28;20053;-58
2022/01/11 00:54:30;;;;;;;9.65;4.32;;;;;;;-6.90;73.67;99653.28;5070418;28;20086;-60
2022/01/11 00:56:56;;;;;;;4.20;3.13;;;;;;;-7.00;72.94;99661.84;5053670;28;20421;-60
2022/01/11 00:59:22;;;;;;;8.52;4.28;;;;;;;-6.97;72.29;99664.19;5070423;28;20047;-59
2022/01/11 01:01:48;;;;;;;6.20;3.22;;;;;;;-6.98;71.61;99660.78;5056514;28;20041;-59
2022/01/11 01:04:14;;;;;;;7.70;4.18;;;;;;;-7.08;72.66;99659.88;5051574;28;20033;-61
2022/01/11 01:06:41;;;;;;;3.95;2.75;;;;;;;-6.99;71.46;99655.78;5050255;28;20044;-60
2022/01/11 01:09:10;;;;;;;5.20;3.20;;;;;;;-7.11;71.33;99668.66;5050160;28;20037;-58
2022/01/11 01:11:43;;;;;;;7.25;3.80;;;;;;;-7.13;71.96;99661.97;5050330;28;20045;-58
2022/01/11 01:14:10;;;;;;;6.80;3.25;;;;;;;-7.19;70.77;99668.41;5033574;28;20387;-60
2022/01/11 01:16:37;;;;;;;4.68;3.00;;;;;;;-7.16;71.26;99688.78;5050262;28;20490;-59
2022/01/11 01:19:32;;;;;;;8.13;3.97;;;;;;;-7.14;72.13;99663.75;5037713;28;20151;-59
2022/01/11 01:21:58;;;;;;;4.63;2.47;;;;;;;-7.23;72.48;99669.59;5051567;28;20120;-59
2022/01/11 01:24:24;;;;;;;6.15;3.42;;;;;;;-7.21;72.58;99680.59;5033610;28;20041;-59
2022/01/11 01:26:50;;;;;;;5.47;2.80;;;;;;;-7.20;72.67;99684.00;5050127;28;20132;-59
2022/01/11 01:29:15;;;;;;;6.50;3.15;;;;;;;-7.08;72.77;99690.78;5049889;28;20055;-59
2022/01/11 01:31:41;;;;;;;4.53;2.78;;;;;;;-7.20;72.01;99684.00;5051311;28;20098;-59
2022/01/11 01:34:07;;;;;;;3.78;2.65;;;;;;;-7.33;72.03;99677.19;5049972;28;20410;-61
2022/01/11 01:36:34;;;;;;;4.07;2.50;;;;;;;-7.25;71.77;99686.91;5049820;28;20536;-59
2022/01/11 01:39:00;;;;;;;4.70;2.83;;;;;;;-7.31;71.63;99705.41;5050018;28;20041;-58
2022/01/11 01:41:26;;;;;;;4.72;2.65;;;;;;;-7.39;72.21;99692.28;5033401;28;20044;-59
2022/01/11 01:43:57;;;;;;;4.32;3.15;;;;;;;-7.29;71.67;99688.09;5049893;28;20049;-60
2022/01/11 01:46:23;;;;;;;5.72;3.33;;;;;;;-7.29;72.26;99692.41;5049974;28;20494;-60
2022/01/11 01:48:50;;;;;;;4.95;3.00;;;;;;;-7.27;71.38;99693.13;5050048;28;20494;-60
2022/01/11 01:51:16;;;;;;;4.57;2.35;;;;;;;-7.38;71.75;99696.50;5034174;28;20053;-58
2022/01/11 01:53:46;;;;;;;5.25;2.60;;;;;;;-7.26;71.25;99720.50;5050135;28;20091;-59
2022/01/11 01:56:12;;;;;;;8.38;3.72;;;;;;;-7.21;70.92;99714.06;5051396;28;20652;-60
2022/01/11 01:58:38;;;;;;;10.60;3.88;;;;;;;-7.27;71.05;99717.13;5050037;28;20099;-61
2022/01/11 02:01:05;;;;;;;6.40;3.17;;;;;;;-7.28;70.34;99719.81;5060737;28;20128;-58
2022/01/11 02:03:38;;;;;;;6.53;3.22;;;;;;;-7.40;71.30;99719.78;5069990;28;20037;-60
2022/01/11 02:06:08;;;;;;;4.65;2.70;;;;;;;-7.52;71.19;99710.41;5071369;28;20053;-60
2022/01/11 02:08:34;;;;;;;5.18;3.58;;;;;;;-7.47;71.35;99722.94;5069685;28;20512;-60
2022/01/11 02:11:00;;;;;;;2.92;2.30;;;;;;;-7.65;71.27;99731.06;5052604;28;20052;-59
2022/01/11 02:13:26;;;;;;;8.40;3.83;;;;;;;-7.46;71.37;99722.03;5069880;28;20408;-59
2022/01/11 02:15:53;;;;;;;7.93;3.85;;;;;;;-7.27;71.18;99719.69;5070969;28;20413;-60
2022/01/11 02:18:23;;;;;;;5.53;2.75;;;;;;;-7.41;70.91;99720.75;5070781;28;20039;-58
2022/01/11 02:20:55;;;;;;;5.82;3.40;;;;;;;-7.45;71.52;99723.66;5069327;28;20509;-60
2022/01/11 02:23:27;;;;;;;9.68;3.83;;;;;;;-7.34;71.29;99723.66;5069610;28;20044;-59
2022/01/11 02:25:54;;;;;;;5.25;2.90;;;;;;;-7.55;71.41;99721.75;5069357;28;20041;-60
2022/01/11 02:28:22;;;;;;;5.97;2.95;;;;;;;-7.66;71.24;99732.03;5069686;28;20169;-59
2022/01/11 02:30:51;;;;;;;4.13;3.08;;;;;;;-7.71;72.35;99726.38;5069096;28;20048;-59
2022/01/11 02:33:32;;;;;;;4.53;2.30;;;;;;;-7.68;70.87;99733.88;5036490;28;20067;-58
2022/01/11 02:36:15;;;;;;;6.50;3.05;;;;;;;-7.65;70.69;99737.97;5068873;28;20086;-60
2022/01/11 02:38:41;;;;;;;7.47;3.70;;;;;;;-7.63;71.40;99744.66;5071599;28;20064;-60
2022/01/11 02:41:09;;;;;;;3.97;2.45;;;;;;;-7.61;71.25;99760.00;5055756;28;20063;-59
2022/01/11 02:43:41;;;;;;;4.20;2.13;;;;;;;-7.74;70.54;99733.50;5074402;28;20048;-58
2022/01/11 02:46:07;;;;;;;7.90;3.55;;;;;;;-7.74;70.67;99734.31;5072924;28;20052;-59
2022/01/11 02:48:33;;;;;;;6.55;2.88;;;;;;;-7.67;71.53;99748.41;5073062;28;20050;-59
2022/01/11 02:50:59;;;;;;;5.85;3.33;;;;;;;-7.67;70.99;99739.88;5070719;28;20128;-58
2022/01/11 02:53:26;;;;;;;2.58;2.20;;;;;;;-7.78;70.94;99744.03;5073007;28;20498;-58
2022/01/11 02:55:53;;;;;;;3.42;2.42;;;;;;;-7.92;70.73;99758.81;5055950;28;20481;-59
2022/01/11 02:58:19;;;;;;;4.28;3.22;;;;;;;-7.93;70.75;99752.06;5072757;28;20055;-58
2022/01/11 03:00:45;;;;;;;3.25;2.20;;;;;;;-7.88;71.61;99768.81;5042663;28;20502;-58
2022/01/11 03:03:17;;;;;;;4.30;2.17;;;;;;;-8.03;72.24;99770.72;5036692;28;20062;-59
2022/01/11 03:05:48;;;;;;;4.50;2.10;;;;;;;-8.01;71.10;99762.88;5053346;28;20071;-58
2022/01/11 03:08:17;;;;;;;2.92;2.25;;;;;;;-8.06;72.20;99755.50;5036296;28;20052;-59
2022/01/11 03:10:44;;;;;;;4.90;2.22;;;;;;;-8.02;71.87;99776.69;5022423;28;20120;-59
2022/01/11 03:13:10;;;;;;;6.65;3.15;;;;;;;-8.00;70.87;99756.78;5052374;28;20059;-59
2022/01/11 03:15:39;;;;;;;4.55;2.92;;;;;;;-7.98;71.73;99752.38;5052441;28;20120;-59
2022/01/11 03:18:08;;;;;;;;;;;;;;;-8.00;70.54;99764.50;5053015;28;20094;-59
2022/01/11 03:20:40;;;;;;;4.10;1.83;;;;;;;-8.04;70.70;99781.09;5052404;28;19928;-58
2022/01/11 03:23:06;;;;;;;4.35;2.47;;;;;;;-8.19;70.68;99752.16;5052150;28;20048;-59
2022/01/11 03:25:32;;;;;;;3.22;2.50;;;;;;;-8.19;70.81;99762.44;5052269;28;20043;-59
2022/01/11 03:27:59;;;;;;;4.30;2.25;;;;;;;-8.20;69.96;99760.81;5051757;28;20037;-58
2022/01/11 03:30:26;;;;;;;6.43;2.78;;;;;;;-8.29;70.17;99772.56;5052033;28;20045;-58
2022/01/11 03:32:55;;;;;;;2.90;2.33;;;;;;;-8.38;70.16;99792.97;5051994;28;20047;-59
2022/01/11 03:35:29;;;;;;;4.35;2.92;;;;;;;-8.46;71.61;99786.63;5036209;28;20446;-58
2022/01/11 03:37:56;;;;;;;4.00;2.13;;;;;;;-8.46;70.96;99771.19;5035112;28;20155;-58
2022/01/11 03:40:24;;;;;;;5.38;2.90;;;;;;;-8.45;71.16;99777.16;5053095;28;20044;-59
2022/01/11 03:42:51;;;;;;;2.65;1.95;;;;;;;-8.60;70.86;99791.88;5035090;28;20053;-58
2022/01/11 03:45:23;;;;;;;2.95;1.98;;;;;;;-8.59;70.32;99802.97;5051771;28;20047;-58
2022/01/11 03:47:56;;;;;;;2.35;2.08;;;;;;;-8.60;70.61;99791.06;5021373;28;20102;-58
2022/01/11 03:50:23;;;;;;;5.25;3.33;;;;;;;-8.60;70.92;99802.16;5050717;28;20084;-59
2022/01/11 03:52:58;;;;;;;5.47;2.38;;;;;;;-8.52;70.87;99796.50;5051583;28;20048;-58
2022/01/11 03:56:21;;;;;;;4.63;2.13;;;;;;;-8.74;71.32;99805.66;5051659;28;20416;-58
2022/01/11 03:58:16;;;;;;;5.68;2.28;;;;;;;-8.65;70.15;99811.94;5045260;28;20063;-59
2022/01/11 04:00:44;;;;;;;5.03;2.45;;;;;;;-8.72;70.29;99811.53;5051415;28;20065;-58
2022/01/11 04:03:11;;;;;;;5.20;2.38;;;;;;;-8.81;71.31;99822.44;5051709;28;20095;-58
2022/01/11 04:05:38;;;;;;;5.28;2.78;;;;;;;-8.83;71.46;99826.84;5051442;28;20517;-58
2022/01/11 04:08:04;;;;;;;2.97;1.98;;;;;;;-8.84;70.24;99816.69;5051172;28;20563;-57
2022/01/11 04:10:30;;;;;;;5.95;2.53;;;;;;;-8.93;71.11;99830.97;5051210;28;20079;-59
2022/01/11 04:12:56;;;;;;;4.10;2.67;;;;;;;-8.83;70.96;99824.28;5034418;28;20076;-60
2022/01/11 04:15:22;;;;;;;3.50;2.30;;;;;;;-8.81;69.75;99819.03;5034702;28;20056;-58
2022/01/11 04:17:48;;;;;;;4.32;2.63;;;;;;;-8.85;69.97;99833.00;5034271;28;20087;-58
2022/01/11 04:20:14;;;;;;;4.80;2.42;;;;;;;-8.71;69.82;99831.16;5034169;28;20041;-58
2022/01/11 04:22:41;;;;;;;6.13;2.58;;;;;;;-8.77;69.15;99831.56;5050973;28;20045;-59
2022/01/11 04:25:08;;;;;;;3.78;2.70;;;;;;;-8.79;70.16;99842.91;5050993;28;20043;-58
2022/01/11 04:27:35;;;;;;;8.13;2.83;;;;;;;-8.85;69.80;99859.53;5034152;28;20537;-57
2022/01/11 04:30:03;;;;;;;4.70;2.65;;;;;;;-9.00;69.37;99851.09;5050708;28;20132;-59
2022/01/11 04:32:30;;;;;;;5.20;2.92;;;;;;;-9.04;69.46;99849.66;5034555;28;20052;-59
2022/01/11 04:34:57;;;;;;;4.93;2.38;;;;;;;-9.04;69.28;99849.66;5052114;28;20088;-59
2022/01/11 04:37:23;;;;;;;4.30;2.75;;;;;;;-8.95;69.97;99846.47;5050884;28;20067;-59
2022/01/11 04:39:49;;;;;;;5.93;2.83;;;;;;;-9.04;69.80;99857.34;5034343;28;20048;-58
2022/01/11 04:42:16;;;;;;;5.30;2.53;;;;;;;-9.00;69.80;99863.09;5033286;28;20427;-58
2022/01/11 04:44:43;;;;;;;4.72;2.75;;;;;;;-9.03;68.87;99860.75;5050293;28;20090;-59
2022/01/11 04:47:09;;;;;;;5.35;2.83;;;;;;;-9.03;69.97;99860.75;5050606;28;20056;-59
2022/01/11 04:49:35;;;;;;;6.65;2.95;;;;;;;-9.05;69.18;99855.72;5050493;28;20041;-59
2022/01/11 04:52:02;;;;;;;5.55;2.55;;;;;;;-9.09;69.48;99866.28;5033761;28;20048;-59
2022/01/11 04:54:28;;;;;;;5.70;3.03;;;;;;;-9.08;69.16;99855.09;5051533;28;20126;-59
2022/01/11 04:56:55;;;;;;;3.00;2.38;;;;;;;-9.35;69.42;99873.09;5050564;28;20045;-58
2022/01/11 04:59:22;;;;;;;5.53;2.67;;;;;;;-9.27;69.88;99866.56;5051474;28;20666;-58
2022/01/11 05:01:49;;;;;;;5.45;2.38;;;;;;;-9.42;68.93;99860.66;5033637;28;20041;-60
2022/01/11 05:04:16;;;;;;;5.70;3.22;;;;;;;-9.29;68.44;99876.13;5050434;28;20127;-60
2022/01/11 05:06:42;;;;;;;5.45;3.47;;;;;;;-9.41;69.89;99872.59;5050085;28;20072;-61
2022/01/11 05:09:08;;;;;;;7.72;3.42;;;;;;;-9.28;69.67;99877.75;5017292;28;20532;-62
2022/01/11 05:11:35;;;;;;;5.93;2.97;;;;;;;-9.53;69.44;99883.63;5016929;28;20072;-61
2022/01/11 05:14:01;;;;;;;8.70;4.05;;;;;;;-9.48;69.84;99891.84;5042075;28;20494;-61
2022/01/11 05:16:38;;;;;;;10.05;3.40;;;;;;;-9.57;69.07;99897.56;5049880;28;20131;-62
2022/01/11 05:19:06;;;;;;;6.85;3.38;;;;;;;-9.72;69.21;99901.09;5050149;28;20040;-61
2022/01/11 05:21:33;;;;;;;8.05;3.33;;;;;;;-9.86;69.60;99904.50;5035788;28;20061;-62
2022/01/11 05:23:59;;;;;;;11.77;4.75;;;;;;;-9.97;69.88;99909.47;5069853;28;20129;-63
2022/01/11 05:26:24;;;;;;;6.55;3.80;;;;;;;-10.18;70.65;99909.88;5068105;28;20044;-62
2022/01/11 05:28:50;;;;;;;6.25;3.55;;;;;;;-10.24;70.35;99894.84;5058655;28;20636;-62
2022/01/11 05:31:16;;;;;;;14.38;4.40;;;;;;;-10.20;71.04;99893.78;5049606;28;20145;-60
2022/01/11 05:33:42;;;;;;;8.80;4.07;;;;;;;-10.33;70.29;99895.44;5051070;28;20055;-61
2022/01/11 05:36:08;;;;;;;8.85;3.97;;;;;;;-10.25;70.09;99905.22;5049498;28;20052;-60
2022/01/11 05:38:35;;;;;;;3.10;2.38;;;;;;;-10.40;69.78;99907.00;5033485;28;20052;-61
2022/01/11 05:41:01;;;;;;;13.15;4.05;;;;;;;-10.52;70.46;99914.47;5049752;28;20041;-61
2022/01/11 05:43:28;;;;;;;6.10;3.50;;;;;;;-10.48;70.23;99924.56;5050478;28;20048;-60
2022/01/11 05:45:54;;;;;;;7.90;3.53;;;;;;;-10.41;70.14;99911.28;5049813;28;20095;-60
2022/01/11 05:48:20;;;;;;;7.53;3.50;;;;;;;-10.33;70.12;99919.31;5049124;28;20546;-60
2022/01/11 05:50:46;;;;;;;7.78;3.83;;;;;;;-10.23;69.37;99913.63;5033096;28;20047;-60
2022/01/11 05:53:13;;;;;;;9.55;4.40;;;;;;;-10.17;68.86;99916.66;5043815;28;20087;-61
2022/01/11 05:55:41;;;;;;;8.38;3.55;;;;;;;-10.30;69.64;99913.19;5049803;28;20045;-60
2022/01/11 05:58:07;;;;;;;9.40;4.03;;;;;;;-10.26;69.05;99924.09;5033149;28;20033;-63
2022/01/11 06:00:33;;;;;;;8.93;3.20;;;;;;;-10.35;68.58;99928.88;5066316;28;20043;-60
2022/01/11 06:02:59;;;;;;;10.73;4.28;;;;;;;-10.32;69.02;99926.13;5066228;28;20048;-62
2022/01/11 06:05:38;;;;;;;8.05;3.97;;;;;;;-10.32;68.77;99938.94;5051256;28;20528;-63
2022/01/11 06:08:05;;;;;;;;;;;;;;;-10.42;68.81;99942.94;5068104;28;20048;-59
2022/01/11 06:10:31;;;;;;;5.78;2.60;;;;;;;-10.44;68.95;99939.66;5053082;28;20011;-61
2022/01/11 06:12:57;;;;;;;8.88;3.15;;;;;;;-10.60;68.56;99955.09;5053147;28;20509;-61
2022/01/11 06:15:22;;;;;;;5.93;3.17;;;;;;;-10.72;69.29;99965.22;5071404;28;20036;-59
2022/01/11 06:17:49;;;;;;;5.95;3.33;;;;;;;-10.82;69.56;99972.63;5029881;28;20053;-60
2022/01/11 06:20:15;;;;;;;2.55;1.98;;;;;;;-10.95;69.44;99959.66;5047684;28;20045;-59
2022/01/11 06:22:42;;;;;;;6.25;2.45;;;;;;;-10.99;69.49;99947.97;5060384;28;20480;-60
2022/01/11 06:25:08;;;;;;;4.00;2.55;;;;;;;-11.01;69.98;99948.03;5070881;28;20223;-60
2022/01/11 06:27:40;;;;;;;8.55;2.55;;;;;;;-10.92;69.44;99956.94;5067072;28;20074;-64
2022/01/11 06:30:08;;;;;;;4.40;2.55;;;;;;;-10.98;69.86;99952.97;5045202;28;20044;-59
2022/01/11 06:32:34;;;;;;;5.00;2.38;;;;;;;-11.05;69.57;99950.88;5051843;28;20067;-60
2022/01/11 06:35:00;;;;;;;4.45;2.80;;;;;;;-10.98;69.30;99964.97;5050143;28;20053;-59
2022/01/11 06:37:26;;;;;;;3.33;2.33;;;;;;;-10.98;69.30;99964.97;5050566;28;20068;-58
2022/01/11 06:39:53;;;;;;;6.90;3.03;;;;;;;-10.96;69.19;99963.16;5048046;28;20053;-59
2022/01/11 06:42:19;;;;;;;3.72;2.15;;;;;;;-11.05;68.87;99971.34;5047992;28;20147;-61
2022/01/11 06:44:46;;;;;;;5.30;2.33;;;;;;;-10.98;68.60;99972.66;5051652;28;20037;-62
2022/01/11 06:47:12;;;;;;;6.88;2.65;;;;;;;-11.04;68.88;99970.44;5049147;28;20064;-61
2022/01/11 06:49:39;;;;;;;6.82;2.75;;;;;;;-10.95;68.57;99969.91;5052165;28;20510;-61
2022/01/11 06:52:06;;;;;;;3.45;1.98;;;;;;;-11.12;68.51;99970.03;5050691;28;20517;-58
2022/01/11 06:54:35;;;;;;;3.03;2.08;;;;;;;-11.08;68.38;100008.19;5015557;28;20539;-59
2022/01/11 06:57:02;;;;;;;5.70;3.00;;;;;;;-11.02;67.92;99989.09;5049986;28;20084;-59
2022/01/11 06:59:28;;;;;;;4.38;2.53;;;;;;;-11.13;68.60;99982.00;5030488;28;20032;-59
2022/01/11 07:01:59;;;;;;;6.70;3.15;;;;;;;-11.04;68.29;99973.00;5048463;28;20048;-59
2022/01/11 07:04:39;;;;;;;4.10;2.92;;;;;;;-10.95;67.54;99984.44;5044475;28;20520;-59
2022/01/11 07:07:08;;;;;;;5.38;2.85;;;;;;;-10.92;67.40;99974.03;5018045;28;20113;-60
2022/01/11 07:09:35;;;;;;;3.88;2.10;;;;;;;-10.94;67.38;99984.38;5034923;28;20048;-60
2022/01/11 07:12:02;;;;;;;5.35;3.35;;;;;;;-10.85;67.06;99988.13;5051077;28;20087;-61
2022/01/11 07:14:29;;;;;;;11.38;3.42;;;;;;;-10.76;67.45;99982.53;5040529;28;20099;-61
2022/01/11 07:16:55;;;;;;;7.03;2.83;;;;;;;-10.76;66.64;99982.53;5032874;28;20051;-60
2022/01/11 07:19:22;;;;;;;4.95;2.75;;;;;;;-10.73;66.67;99991.75;5049799;28;20422;-59
2022/01/11 07:21:51;;;;;;;5.28;2.88;;;;;;;-10.71;66.10;99989.94;5051386;28;20064;-58
2022/01/11 07:24:18;;;;;;;4.28;2.25;;;;;;;-10.78;66.12;99997.13;5033866;28;20049;-57
2022/01/11 07:26:47;;;;;;;7.15;2.90;;;;;;;-10.73;65.92;99992.59;5032816;28;20036;-58
2022/01/11 07:29:13;;;;;;;9.00;3.55;;;;;;;-10.79;66.17;99993.75;5027812;28;20499;-58
2022/01/11 07:31:41;;;;;;;6.50;3.28;;;;;;;-10.69;66.43;99991.50;5046420;28;20116;-59
2022/01/11 07:34:09;;;;;;;8.35;3.75;;;;;;;-10.53;66.15;99996.53;5042443;28;20144;-60
2022/01/11 07:36:36;;;;;;;9.50;3.35;;;;;;;-10.46;65.46;99997.03;5053539;28;20519;-58
2022/01/11 07:39:05;;;;;;;5.45;2.83;;;;;;;-10.40;65.44;100006.94;5053132;28;20524;-59
2022/01/11 07:41:33;;;;;;;11.02;3.13;;;;;;;-10.56;65.00;100006.97;5055649;28;20044;-58
2022/01/11 07:44:39;;;;;;;3.38;2.30;;;;;;;-10.55;65.49;100014.59;5005451;28;20058;-59
2022/01/11 07:47:06;;;;;;;5.60;2.58;;;;;;;-10.49;65.31;100017.72;5027112;28;20564;-58
2022/01/11 07:49:35;;;;;;;6.90;3.47;;;;;;;-10.47;64.68;100021.84;5028348;28;20045;-58
2022/01/11 07:52:02;;;;;;;4.55;3.25;;;;;;;-10.34;64.86;100022.78;5048639;28;20287;-59
2022/01/11 07:54:28;;;;;;;6.38;3.33;;;;;;;-10.29;64.23;100032.78;5049919;28;20070;-58
2022/01/11 07:56:56;;;;;;;6.80;2.78;;;;;;;-10.23;63.71;100029.81;5048242;28;20045;-60
2022/01/11 07:59:22;;;;;;;8.70;2.92;;;;;;;-10.25;64.16;100039.34;5052297;28;20051;-58
2022/01/11 08:01:48;;;;;;;7.10;3.13;;;;;;;-10.44;64.55;100042.19;5081558;28;20140;-60
2022/01/11 08:04:18;;;;;;;3.45;2.70;;;;;;;-10.41;63.89;100038.59;5071281;28;20501;-61
2022/01/11 08:06:49;;;;;;;7.85;3.75;;;;;;;-10.62;64.41;100054.25;5049521;28;20076;-60
2022/01/11 08:09:36;;;;;;;8.98;2.90;;;;;;;-10.57;64.03;100046.34;5035233;28;20052;-58
2022/01/11 08:12:03;;;;;;;3.08;2.50;;;;;;;-10.56;64.16;100074.44;5048572;28;20045;-58
2022/01/11 08:14:29;;;;;;;14.32;3.85;;;;;;;-10.58;64.20;100060.06;5051666;28;20055;-58
2022/01/11 08:16:56;;;;;;;5.57;2.78;;;;;;;-10.60;63.99;100051.63;5051377;28;20044;-60
2022/01/11 08:19:25;;;;;;;4.13;2.55;;;;;;;-10.63;63.82;100069.75;5059778;28;20041;-59
2022/01/11 08:21:53;;;;;;;5.38;2.08;;;;;;;-10.70;63.80;100063.31;5046713;28;20073;-60
2022/01/11 08:24:22;;;;;;;5.45;3.38;;;;;;;-10.73;63.62;100050.66;5052095;28;20032;-59
2022/01/11 08:26:49;;;;;;;6.80;3.33;;;;;;;-10.67;64.16;100060.59;5066626;28;20098;-60
2022/01/11 08:29:17;;;;;;;5.13;2.83;;;;;;;-10.52;63.81;100052.03;5059000;28;20548;-60
2022/01/11 08:31:45;;;;;;;6.72;2.72;;;;;;;-10.53;63.29;100068.28;5047259;28;20483;-59
2022/01/11 08:34:14;;;;;;;7.40;2.63;;;;;;;-10.33;63.83;100067.16;5073001;28;20574;-58
2022/01/11 08:36:42;;;;;;;7.47;3.40;;;;;;;-10.23;63.05;100064.88;5055690;28;20062;-59
2022/01/11 08:39:09;;;;;;;7.05;3.88;;;;;;;-10.20;62.81;100067.28;5089885;28;20094;-60
2022/01/11 08:41:35;;;;;;;2.15;1.95;;;;;;;-10.22;62.54;100061.41;5088572;28;20455;-57
2022/01/11 08:44:03;;;;;;;3.92;1.95;;;;;;;-10.31;62.67;100073.88;5089259;28;20047;-60
2022/01/11 08:46:29;;;;;;;6.45;3.42;;;;;;;-10.36;62.80;100063.03;5088898;28;20135;-58
2022/01/11 08:49:08;;;;;;;8.43;2.83;;;;;;;-10.36;62.75;100057.91;5088565;28;20063;-60
2022/01/11 08:51:34;;;;;;;9.20;3.78;;;;;;;-10.25;62.61;100064.16;5089789;28;20071;-58
2022/01/11 08:54:00;;;;;;;7.80;3.58;;;;;;;-10.22;62.78;100058.84;5071301;28;20429;-60
2022/01/11 08:56:27;;;;;;;6.18;3.45;;;;;;;-10.25;61.68;100074.41;5068437;28;20131;-59
2022/01/11 08:58:55;;;;;;;8.13;3.33;;;;;;;-10.17;63.28;100059.41;5086713;28;20040;-58
2022/01/11 09:01:27;;;;;;;6.65;3.05;;;;;;;-10.30;61.61;100067.81;5086649;28;20093;-60
2022/01/11 09:03:55;;;;;;;4.82;2.17;;;;;;;-10.41;61.30;100089.84;5071802;28;20055;-59
2022/01/11 09:06:21;;;;;;;5.90;2.65;;;;;;;-10.45;61.82;100085.81;5087550;28;20040;-59
2022/01/11 09:08:50;;;;;;;3.25;2.40;;;;;;;-10.61;61.46;100073.06;5088988;28;20052;-60
2022/01/11 09:11:16;;;;;;;3.53;2.40;;;;;;;-10.68;62.03;100079.41;5086938;28;20040;-57
2022/01/11 09:13:45;;;;;;;6.32;2.53;;;;;;;-10.85;61.44;100060.69;5073670;28;20102;-58
2022/01/11 09:16:11;;;;;;;4.78;3.10;;;;;;;-10.96;62.25;100062.19;5075210;28;20067;-59
2022/01/11 09:18:39;;;;;;;2.95;2.08;;;;;;;-11.14;61.39;100080.19;5072966;28;20043;-59
2022/01/11 09:21:06;;;;;;;3.28;2.30;;;;;;;-11.22;61.86;100093.41;5074184;28;20044;-60
2022/01/11 09:23:35;;;;;;;2.97;1.52;;;;;;;-11.35;62.30;100092.41;5091348;28;20123;-59
2022/01/11 09:26:02;;;;;;;8.07;2.58;;;;;;;-11.39;62.27;100088.34;5072217;28;20046;-60
2022/01/11 09:28:31;;;;;;;4.88;2.20;;;;;;;-11.60;62.52;100100.53;5071572;28;20052;-56
2022/01/11 09:30:58;;;;;;;3.55;2.20;;;;;;;-11.62;63.42;100086.16;5086112;28;20481;-59
2022/01/11 09:33:24;;;;;;;4.45;2.03;;;;;;;-11.63;63.33;100082.78;5085212;28;20036;-60
2022/01/11 09:35:52;;;;;;;2.50;2.30;;;;;;;-11.70;62.27;100100.19;5085263;28;20425;-60
2022/01/11 09:38:22;;;;;;;5.00;2.40;;;;;;;-11.65;63.33;100087.13;5085171;28;20180;-59
2022/01/11 09:40:53;;;;;;;3.72;3.05;;;;;;;-11.68;63.29;100092.41;5084906;28;20052;-59
2022/01/11 09:43:21;;;;;;;4.50;2.58;;;;;;;-11.51;63.02;100077.00;5085553;28;20040;-63
2022/01/11 09:45:52;;;;;;;6.35;2.47;;;;;;;-11.29;62.66;100079.28;5065746;28;20028;-60
2022/01/11 09:48:20;;;;;;;3.85;2.38;;;;;;;-11.34;62.33;100078.69;5050045;28;20048;-59
2022/01/11 09:50:46;;;;;;;3.78;2.35;;;;;;;-11.21;62.20;100079.69;5049878;28;20128;-61
2022/01/11 09:53:13;;;;;;;5.68;2.53;;;;;;;-11.10;61.47;100101.34;5032856;28;20052;-59
2022/01/11 09:55:44;;;;;;;9.17;2.43;;;;;;;-11.28;61.49;100105.69;5050196;28;20413;-59
2022/01/11 09:58:11;;;;;;;5.55;2.25;;;;;;;-11.26;62.27;100098.78;5048194;28;20049;-60
2022/01/11 10:00:57;;;;;;;4.20;2.28;;;;;;;-11.10;61.46;100088.53;5060380;28;20425;-60
2022/01/11 10:04:04;;;;;;;3.78;2.35;;;;;;;-11.19;62.06;100096.72;5040453;28;20094;-59
2022/01/11 10:06:54;;;;;;;4.65;2.00;;;;;;;-11.18;61.23;100095.78;5065306;28;20056;-61
2022/01/11 10:09:22;;;;;;;2.22;1.58;;;;;;;-11.26;61.69;100099.59;5034369;28;20048;-59
2022/01/11 10:11:50;;;;;;;1.80;1.30;;;;;;;-11.29;61.45;100098.94;5050259;28;20384;-58
2022/01/11 10:14:19;;;;;;;5.05;2.40;;;;;;;-11.11;61.14;100120.19;5033603;28;20048;-57
2022/01/11 10:16:46;;;;;;;2.10;1.60;;;;;;;-11.18;61.02;100106.84;5066194;28;20043;-58
2022/01/11 10:19:24;;;;;;;3.63;2.33;;;;;;;-11.09;61.42;100092.75;5031988;28;20045;-60
2022/01/11 10:21:51;;;;;;;6.60;3.45;;;;;;;-10.89;60.85;100096.78;5015146;28;20083;-59
2022/01/11 10:24:26;;;;;;;6.10;3.03;;;;;;;-10.70;60.53;100102.56;5029807;28;20045;-57
2022/01/11 10:26:56;;;;;;;4.30;2.53;;;;;;;-10.90;60.49;100103.66;5029883;28;20118;-59
2022/01/11 10:29:25;;;;;;;4.35;2.60;;;;;;;-10.82;59.97;100113.50;5028148;28;20105;-58
2022/01/11 10:31:53;;;;;;;7.95;3.63;;;;;;;-11.04;59.82;100109.50;5050784;28;20081;-58
2022/01/11 10:34:33;;;;;;;3.08;1.90;;;;;;;-11.18;59.90;100117.09;5046329;28;20127;-61
2022/01/11 10:37:04;;;;;;;3.00;2.30;;;;;;;-11.17;60.56;100136.69;5031217;28;20118;-63
2022/01/11 10:39:36;;;;;;;6.22;2.70;;;;;;;-11.28;59.78;100133.84;5061967;28;20052;-61
2022/01/11 10:42:25;;;;;;;2.75;2.13;;;;;;;-11.56;60.79;100132.69;5051213;28;20528;-60
2022/01/11 10:44:55;;;;;;;3.75;2.45;;;;;;;-11.68;60.86;100129.03;5073839;28;20143;-62
2022/01/11 10:47:29;;;;;;;4.13;2.75;;;;;;;-11.75;61.50;100121.78;5088660;28;20126;-62
2022/01/11 10:50:28;;;;;;;4.20;2.28;;;;;;;-11.63;61.88;100125.44;5081716;28;20089;-60
2022/01/11 10:53:03;;;;;;;3.50;2.67;;;;;;;-11.56;61.77;100121.66;5008048;28;20052;-59
2022/01/11 10:55:33;;;;;;;7.95;3.33;;;;;;;-11.62;61.77;100115.13;5058155;28;20039;-62
2022/01/11 10:58:03;;;;;;;6.85;2.28;;;;;;;-11.64;61.16;100127.19;5059731;28;20056;-60
2022/01/11 11:00:36;;;;;;;3.03;2.30;;;;;;;-11.58;61.45;100131.97;5048935;28;20045;-63
2022/01/11 11:03:14;;;;;;;7.55;2.42;;;;;;;-11.47;61.54;100123.72;5052697;28;20068;-59
2022/01/11 11:05:51;;;;;;;6.43;2.75;;;;;;;-11.47;61.43;100123.72;5054045;28;20065;-61
2022/01/11 11:08:30;;;;;;;5.60;2.08;;;;;;;-11.47;61.30;100131.41;5062293;28;20044;-62
2022/01/11 11:11:17;;;;;;;6.35;2.80;;;;;;;-11.66;61.06;100132.34;5040623;28;20457;-61
2022/01/11 11:13:48;;;;;;;3.95;2.10;;;;;;;-11.78;61.28;100127.88;5064642;28;20640;-62
2022/01/11 11:16:18;;;;;;;4.13;2.22;;;;;;;-11.91;62.73;100132.81;5068835;28;20413;-61
2022/01/11 11:18:54;;;;;;;5.18;2.33;;;;;;;-12.05;62.59;100137.78;5035392;28;20044;-61
2022/01/11 11:21:32;;;;;;;2.65;1.50;;;;;;;-11.90;63.23;100134.44;5036973;28;20687;-62
2022/01/11 11:24:16;;;;;;;2.47;2.28;;;;;;;-12.00;63.80;100143.50;5040878;28;20048;-61
2022/01/11 11:26:49;;;;;;;2.15;1.83;;;;;;;-11.81;62.64;100142.53;5070204;28;20520;-63
2022/01/11 11:29:19;;;;;;;1.75;1.65;;;;;;;-11.66;62.94;100154.56;5063056;28;20049;-61
2022/01/11 11:31:47;;;;;;;7.45;2.72;;;;;;;-11.67;62.14;100151.16;5067342;28;20055;-63
2022/01/11 11:34:13;;;;;;;1.52;1.38;;;;;;;-11.69;62.78;100147.84;5067344;28;20131;-62
2022/01/11 11:36:41;;;;;;;5.85;2.55;;;;;;;-11.56;63.06;100137.81;5065285;28;20061;-62